• Join FlightAware (Why Join?)
  • Login
  • US Flag 
06:22AM EDT


 

Airport Tracker/Info


-or-


 

Live Flight TrackerFlight Track Log ✈ ERR859 ✈ 2014年 05月 27日 ✈ PAEN / ENA - PANC

Flight Track Log - Related Links

Times and Time Zones

All times are in EDT time to prevent confusion due to time zone crossing. See the ERR859 flight status page for this flight to view local times or setup timezone preferences in your user account.

Time Position Orientation Groundspeed Altitude Reporting Facility
EDT Latitude Longitude Course Direction KTS MPH feet Rate Location/Type
11:32PM 60.6000 -151.2000 47° Northeast 150 173 1,600  Level Anchorage Center
11:33PM 60.6333 -151.1333 44° Northeast 160 184 3,500 1,680 Climbing Anchorage Center
11:34PM 60.6667 -151.0667 44° Northeast 180 207 5,000 720 Climbing Anchorage Center
11:35PM 60.7000 -150.9667 56° Northeast 220 253 5,000  Level Anchorage Center
11:37PM 60.7610 -150.8393 46° Northeast  Level FlightAware Approximate
11:38PM 60.8334 -150.6898 47° Northeast  Level FlightAware Approximate
11:44PM 61.0410 -150.2193 46° Northeast  Level FlightAware Approximate
11:45PM 61.0831 -150.1228 52° Northeast  Level FlightAware Approximate
11:46PM 61.1231 -150.0226 39° Northeast  Level FlightAware Approximate
11:47PM 61.1667 -149.9647 270° West  Level FlightAware Approximate
11:48PM 61.1667 -149.9833 270° West  Level FlightAware Approximate
11:49PM 61.1741 -149.9982 270° West  Level Estimated
11:50PM 61.1741 -149.9982 270° West  Level Estimated
11:51PM 61.1741 -149.9982 270° West  Level Estimated
11:52PM 61.1741 -149.9982 270° West  Level Estimated
11:53PM 61.1741 -149.9982 270° West  Level Estimated
11:54PM 61.1741 -149.9982 270° West  Level Estimated
11:55PM 61.1741 -149.9982 270° West  Level Estimated
11:56PM 61.1741 -149.9982 270° West  Level Estimated
11:57PM 61.1741 -149.9982 270° West  Level Estimated
11:58PM 61.1741 -149.9982 270° West  Level Estimated
11:59PM 61.1741 -149.9982 270° West  Level Estimated
12:00AM 61.1741 -149.9982 270° West  Level Estimated
12:01AM 61.1741 -149.9982 270° West  Level Estimated